sensor_id;sensor_type;location;lat;lon;timestamp;P1;durP1;ratioP1;P2;durP2;ratioP2
8219;SDS011;4151;51.110;7.020;2023-04-24T00:00:00;1.87;;;0.80;;
8219;SDS011;4151;51.110;7.020;2023-04-24T00:02:30;0.87;;;0.83;;
8219;SDS011;4151;51.110;7.020;2023-04-24T00:04:56;1.13;;;0.93;;
8219;SDS011;4151;51.110;7.020;2023-04-24T00:07:22;0.70;;;0.60;;
8219;SDS011;4151;51.110;7.020;2023-04-24T00:09:47;2.30;;;1.10;;
8219;SDS011;4151;51.110;7.020;2023-04-24T00:12:13;2.20;;;0.90;;
8219;SDS011;4151;51.110;7.020;2023-04-24T00:14:38;1.33;;;1.13;;
8219;SDS011;4151;51.110;7.020;2023-04-24T00:17:04;1.97;;;1.10;;
8219;SDS011;4151;51.110;7.020;2023-04-24T00:19:30;1.17;;;0.90;;
8219;SDS011;4151;51.110;7.020;2023-04-24T00:21:55;5.43;;;1.00;;
8219;SDS011;4151;51.110;7.020;2023-04-24T00:24:21;1.10;;;1.00;;
8219;SDS011;4151;51.110;7.020;2023-04-24T00:26:47;1.03;;;0.93;;
8219;SDS011;4151;51.110;7.020;2023-04-24T00:29:12;5.17;;;1.00;;
8219;SDS011;4151;51.110;7.020;2023-04-24T00:31:38;1.00;;;0.80;;
8219;SDS011;4151;51.110;7.020;2023-04-24T00:34:04;1.10;;;0.90;;
8219;SDS011;4151;51.110;7.020;2023-04-24T00:36:30;1.00;;;0.90;;
8219;SDS011;4151;51.110;7.020;2023-04-24T00:38:57;2.00;;;1.13;;
8219;SDS011;4151;51.110;7.020;2023-04-24T00:41:22;4.97;;;1.03;;
8219;SDS011;4151;51.110;7.020;2023-04-24T00:43:49;1.23;;;0.97;;
8219;SDS011;4151;51.110;7.020;2023-04-24T00:46:16;1.17;;;1.10;;
8219;SDS011;4151;51.110;7.020;2023-04-24T00:48:41;1.77;;;1.20;;
8219;SDS011;4151;51.110;7.020;2023-04-24T00:51:08;2.30;;;1.00;;
8219;SDS011;4151;51.110;7.020;2023-04-24T00:53:34;1.23;;;1.00;;
8219;SDS011;4151;51.110;7.020;2023-04-24T00:56:00;2.67;;;1.30;;
8219;SDS011;4151;51.110;7.020;2023-04-24T00:58:26;3.70;;;1.40;;
8219;SDS011;4151;51.110;7.020;2023-04-24T01:00:53;1.20;;;1.10;;
8219;SDS011;4151;51.110;7.020;2023-04-24T01:03:20;1.83;;;0.97;;
8219;SDS011;4151;51.110;7.020;2023-04-24T01:05:47;1.13;;;1.00;;
8219;SDS011;4151;51.110;7.020;2023-04-24T01:08:14;3.60;;;1.23;;
8219;SDS011;4151;51.110;7.020;2023-04-24T01:10:40;4.63;;;1.37;;
8219;SDS011;4151;51.110;7.020;2023-04-24T01:13:07;1.43;;;1.03;;
8219;SDS011;4151;51.110;7.020;2023-04-24T01:15:33;1.30;;;1.20;;
8219;SDS011;4151;51.110;7.020;2023-04-24T01:17:59;2.50;;;1.13;;
8219;SDS011;4151;51.110;7.020;2023-04-24T01:20:25;2.07;;;1.20;;
8219;SDS011;4151;51.110;7.020;2023-04-24T01:22:51;1.30;;;1.00;;
8219;SDS011;4151;51.110;7.020;2023-04-24T01:25:17;2.97;;;1.30;;
8219;SDS011;4151;51.110;7.020;2023-04-24T01:27:43;3.30;;;1.00;;
8219;SDS011;4151;51.110;7.020;2023-04-24T01:30:09;2.50;;;1.00;;
8219;SDS011;4151;51.110;7.020;2023-04-24T01:32:35;1.80;;;1.60;;
8219;SDS011;4151;51.110;7.020;2023-04-24T01:35:02;1.30;;;1.20;;
8219;SDS011;4151;51.110;7.020;2023-04-24T01:37:28;2.50;;;1.80;;
8219;SDS011;4151;51.110;7.020;2023-04-24T01:39:53;2.70;;;1.90;;
8219;SDS011;4151;51.110;7.020;2023-04-24T01:42:19;3.00;;;2.17;;
8219;SDS011;4151;51.110;7.020;2023-04-24T01:44:44;3.87;;;2.20;;
8219;SDS011;4151;51.110;7.020;2023-04-24T01:47:11;3.50;;;2.30;;
8219;SDS011;4151;51.110;7.020;2023-04-24T01:49:39;3.43;;;2.87;;
8219;SDS011;4151;51.110;7.020;2023-04-24T01:52:05;8.70;;;2.97;;
8219;SDS011;4151;51.110;7.020;2023-04-24T01:54:31;3.20;;;2.77;;
8219;SDS011;4151;51.110;7.020;2023-04-24T01:56:56;4.87;;;3.27;;
8219;SDS011;4151;51.110;7.020;2023-04-24T01:59:22;5.43;;;3.40;;
8219;SDS011;4151;51.110;7.020;2023-04-24T02:01:50;4.83;;;2.50;;
8219;SDS011;4151;51.110;7.020;2023-04-24T02:04:15;7.90;;;3.27;;
8219;SDS011;4151;51.110;7.020;2023-04-24T02:06:41;16.10;;;3.30;;
8219;SDS011;4151;51.110;7.020;2023-04-24T02:09:06;8.63;;;4.13;;
8219;SDS011;4151;51.110;7.020;2023-04-24T02:11:32;9.30;;;3.70;;
8219;SDS011;4151;51.110;7.020;2023-04-24T02:13:58;7.37;;;3.70;;
8219;SDS011;4151;51.110;7.020;2023-04-24T02:16:24;7.37;;;4.03;;
8219;SDS011;4151;51.110;7.020;2023-04-24T02:18:49;12.43;;;4.53;;
8219;SDS011;4151;51.110;7.020;2023-04-24T02:21:15;8.60;;;4.20;;
8219;SDS011;4151;51.110;7.020;2023-04-24T02:23:40;11.07;;;4.90;;
8219;SDS011;4151;51.110;7.020;2023-04-24T02:26:06;8.17;;;4.90;;
8219;SDS011;4151;51.110;7.020;2023-04-24T02:28:32;12.23;;;5.50;;
8219;SDS011;4151;51.110;7.020;2023-04-24T02:30:57;10.00;;;5.70;;
8219;SDS011;4151;51.110;7.020;2023-04-24T02:33:23;10.00;;;5.53;;
8219;SDS011;4151;51.110;7.020;2023-04-24T02:35:49;10.27;;;5.60;;
8219;SDS011;4151;51.110;7.020;2023-04-24T02:38:14;9.80;;;5.90;;
8219;SDS011;4151;51.110;7.020;2023-04-24T02:40:40;16.63;;;6.33;;
8219;SDS011;4151;51.110;7.020;2023-04-24T02:43:05;7.80;;;5.40;;
8219;SDS011;4151;51.110;7.020;2023-04-24T02:45:31;12.10;;;5.53;;
8219;SDS011;4151;51.110;7.020;2023-04-24T02:47:57;7.23;;;5.30;;
8219;SDS011;4151;51.110;7.020;2023-04-24T02:50:22;24.03;;;5.83;;
8219;SDS011;4151;51.110;7.020;2023-04-24T02:52:48;9.13;;;6.00;;
8219;SDS011;4151;51.110;7.020;2023-04-24T02:55:13;11.00;;;5.07;;
8219;SDS011;4151;51.110;7.020;2023-04-24T02:57:39;10.30;;;5.70;;
8219;SDS011;4151;51.110;7.020;2023-04-24T03:00:05;11.30;;;5.70;;
8219;SDS011;4151;51.110;7.020;2023-04-24T03:02:32;8.73;;;5.50;;
8219;SDS011;4151;51.110;7.020;2023-04-24T03:04:57;9.90;;;6.20;;
8219;SDS011;4151;51.110;7.020;2023-04-24T03:07:23;13.10;;;5.27;;
8219;SDS011;4151;51.110;7.020;2023-04-24T03:09:49;11.10;;;5.87;;
8219;SDS011;4151;51.110;7.020;2023-04-24T03:12:14;12.40;;;6.13;;
8219;SDS011;4151;51.110;7.020;2023-04-24T03:14:42;9.93;;;5.73;;
8219;SDS011;4151;51.110;7.020;2023-04-24T03:17:08;12.20;;;5.73;;
8219;SDS011;4151;51.110;7.020;2023-04-24T03:19:33;11.37;;;6.20;;
8219;SDS011;4151;51.110;7.020;2023-04-24T03:21:59;13.13;;;6.70;;
8219;SDS011;4151;51.110;7.020;2023-04-24T03:24:27;9.80;;;6.50;;
8219;SDS011;4151;51.110;7.020;2023-04-24T03:26:53;13.30;;;6.00;;
8219;SDS011;4151;51.110;7.020;2023-04-24T03:29:18;10.93;;;6.33;;
8219;SDS011;4151;51.110;7.020;2023-04-24T03:31:44;13.50;;;6.70;;
8219;SDS011;4151;51.110;7.020;2023-04-24T03:34:10;11.97;;;6.00;;
8219;SDS011;4151;51.110;7.020;2023-04-24T03:36:35;10.20;;;6.47;;
8219;SDS011;4151;51.110;7.020;2023-04-24T03:39:01;13.07;;;6.53;;
8219;SDS011;4151;51.110;7.020;2023-04-24T03:41:26;16.23;;;7.00;;
8219;SDS011;4151;51.110;7.020;2023-04-24T03:43:52;17.07;;;6.70;;
8219;SDS011;4151;51.110;7.020;2023-04-24T03:46:17;8.90;;;6.20;;
8219;SDS011;4151;51.110;7.020;2023-04-24T03:48:43;10.83;;;6.17;;
8219;SDS011;4151;51.110;7.020;2023-04-24T03:51:09;13.50;;;6.50;;
8219;SDS011;4151;51.110;7.020;2023-04-24T03:53:34;11.67;;;6.57;;
8219;SDS011;4151;51.110;7.020;2023-04-24T03:56:00;16.20;;;7.80;;
8219;SDS011;4151;51.110;7.020;2023-04-24T03:58:25;19.57;;;7.07;;
8219;SDS011;4151;51.110;7.020;2023-04-24T04:00:51;10.73;;;6.43;;
8219;SDS011;4151;51.110;7.020;2023-04-24T04:03:17;10.47;;;7.07;;
8219;SDS011;4151;51.110;7.020;2023-04-24T04:05:42;10.27;;;6.80;;
8219;SDS011;4151;51.110;7.020;2023-04-24T04:08:08;9.70;;;6.40;;
8219;SDS011;4151;51.110;7.020;2023-04-24T04:10:33;14.53;;;7.10;;
8219;SDS011;4151;51.110;7.020;2023-04-24T04:12:59;8.90;;;5.77;;
8219;SDS011;4151;51.110;7.020;2023-04-24T04:15:25;11.80;;;5.63;;
8219;SDS011;4151;51.110;7.020;2023-04-24T04:17:50;12.50;;;7.30;;
8219;SDS011;4151;51.110;7.020;2023-04-24T04:20:16;14.43;;;6.33;;
8219;SDS011;4151;51.110;7.020;2023-04-24T04:22:41;11.37;;;6.33;;
8219;SDS011;4151;51.110;7.020;2023-04-24T04:25:07;12.40;;;6.27;;
8219;SDS011;4151;51.110;7.020;2023-04-24T04:27:33;10.87;;;6.03;;
8219;SDS011;4151;51.110;7.020;2023-04-24T04:29:59;8.50;;;6.33;;
8219;SDS011;4151;51.110;7.020;2023-04-24T04:32:30;17.30;;;6.70;;
8219;SDS011;4151;51.110;7.020;2023-04-24T04:34:58;14.50;;;5.53;;
8219;SDS011;4151;51.110;7.020;2023-04-24T04:37:27;10.27;;;6.53;;
8219;SDS011;4151;51.110;7.020;2023-04-24T04:39:54;11.70;;;6.10;;
8219;SDS011;4151;51.110;7.020;2023-04-24T04:42:19;9.60;;;6.47;;
8219;SDS011;4151;51.110;7.020;2023-04-24T04:44:45;16.90;;;6.40;;
8219;SDS011;4151;51.110;7.020;2023-04-24T04:47:11;12.50;;;6.30;;
8219;SDS011;4151;51.110;7.020;2023-04-24T04:49:38;10.20;;;6.50;;
8219;SDS011;4151;51.110;7.020;2023-04-24T04:52:03;13.83;;;6.60;;
8219;SDS011;4151;51.110;7.020;2023-04-24T04:54:29;13.30;;;6.00;;
8219;SDS011;4151;51.110;7.020;2023-04-24T04:56:55;9.00;;;6.13;;
8219;SDS011;4151;51.110;7.020;2023-04-24T04:59:22;16.90;;;6.30;;
8219;SDS011;4151;51.110;7.020;2023-04-24T05:01:47;11.10;;;6.73;;
8219;SDS011;4151;51.110;7.020;2023-04-24T05:04:13;10.00;;;6.17;;
8219;SDS011;4151;51.110;7.020;2023-04-24T05:06:39;12.03;;;5.90;;
8219;SDS011;4151;51.110;7.020;2023-04-24T05:09:04;10.47;;;5.50;;
8219;SDS011;4151;51.110;7.020;2023-04-24T05:11:30;11.00;;;5.53;;
8219;SDS011;4151;51.110;7.020;2023-04-24T05:13:56;12.60;;;5.27;;
8219;SDS011;4151;51.110;7.020;2023-04-24T05:16:21;17.00;;;5.80;;
8219;SDS011;4151;51.110;7.020;2023-04-24T05:18:47;11.97;;;5.40;;
8219;SDS011;4151;51.110;7.020;2023-04-24T05:21:12;8.90;;;4.70;;
8219;SDS011;4151;51.110;7.020;2023-04-24T05:23:38;11.97;;;6.07;;
8219;SDS011;4151;51.110;7.020;2023-04-24T05:26:03;7.17;;;4.80;;
8219;SDS011;4151;51.110;7.020;2023-04-24T05:28:29;8.83;;;5.57;;
8219;SDS011;4151;51.110;7.020;2023-04-24T05:30:55;7.20;;;4.70;;
8219;SDS011;4151;51.110;7.020;2023-04-24T05:33:20;8.33;;;4.63;;
8219;SDS011;4151;51.110;7.020;2023-04-24T05:35:47;10.23;;;4.90;;
8219;SDS011;4151;51.110;7.020;2023-04-24T05:38:13;10.17;;;5.50;;
8219;SDS011;4151;51.110;7.020;2023-04-24T05:40:39;12.10;;;6.23;;
8219;SDS011;4151;51.110;7.020;2023-04-24T05:43:05;13.93;;;6.33;;
8219;SDS011;4151;51.110;7.020;2023-04-24T05:45:30;12.43;;;5.83;;
8219;SDS011;4151;51.110;7.020;2023-04-24T05:47:56;16.33;;;5.80;;
8219;SDS011;4151;51.110;7.020;2023-04-24T05:50:22;9.13;;;5.90;;
8219;SDS011;4151;51.110;7.020;2023-04-24T05:52:47;9.97;;;6.57;;
8219;SDS011;4151;51.110;7.020;2023-04-24T05:55:13;11.27;;;6.07;;
8219;SDS011;4151;51.110;7.020;2023-04-24T05:57:38;12.60;;;7.00;;
8219;SDS011;4151;51.110;7.020;2023-04-24T06:00:04;16.37;;;6.77;;
8219;SDS011;4151;51.110;7.020;2023-04-24T06:02:30;14.67;;;6.27;;
8219;SDS011;4151;51.110;7.020;2023-04-24T06:04:57;11.73;;;7.53;;
8219;SDS011;4151;51.110;7.020;2023-04-24T06:07:24;11.07;;;6.23;;
8219;SDS011;4151;51.110;7.020;2023-04-24T06:09:51;12.90;;;6.80;;
8219;SDS011;4151;51.110;7.020;2023-04-24T06:12:17;12.80;;;7.40;;
8219;SDS011;4151;51.110;7.020;2023-04-24T06:14:43;15.63;;;6.80;;
8219;SDS011;4151;51.110;7.020;2023-04-24T06:17:08;14.03;;;7.40;;
8219;SDS011;4151;51.110;7.020;2023-04-24T06:19:34;14.47;;;7.10;;
8219;SDS011;4151;51.110;7.020;2023-04-24T06:22:00;8.87;;;5.77;;
8219;SDS011;4151;51.110;7.020;2023-04-24T06:24:28;12.90;;;5.33;;
8219;SDS011;4151;51.110;7.020;2023-04-24T06:26:54;10.07;;;4.90;;
8219;SDS011;4151;51.110;7.020;2023-04-24T06:29:20;6.07;;;4.57;;
8219;SDS011;4151;51.110;7.020;2023-04-24T06:31:45;9.57;;;4.43;;
8219;SDS011;4151;51.110;7.020;2023-04-24T06:34:11;9.27;;;3.63;;
8219;SDS011;4151;51.110;7.020;2023-04-24T06:36:36;4.57;;;3.73;;
8219;SDS011;4151;51.110;7.020;2023-04-24T06:39:02;6.50;;;3.93;;
8219;SDS011;4151;51.110;7.020;2023-04-24T06:41:28;13.13;;;3.37;;
8219;SDS011;4151;51.110;7.020;2023-04-24T06:43:54;9.37;;;3.83;;
8219;SDS011;4151;51.110;7.020;2023-04-24T06:46:19;6.23;;;4.07;;
8219;SDS011;4151;51.110;7.020;2023-04-24T06:48:48;4.83;;;3.53;;
8219;SDS011;4151;51.110;7.020;2023-04-24T06:51:14;9.30;;;3.90;;
8219;SDS011;4151;51.110;7.020;2023-04-24T06:53:40;7.13;;;3.37;;
8219;SDS011;4151;51.110;7.020;2023-04-24T06:56:05;9.97;;;3.40;;
8219;SDS011;4151;51.110;7.020;2023-04-24T06:58:31;6.30;;;3.87;;
8219;SDS011;4151;51.110;7.020;2023-04-24T07:00:57;3.07;;;2.67;;
8219;SDS011;4151;51.110;7.020;2023-04-24T07:03:22;5.47;;;3.50;;
8219;SDS011;4151;51.110;7.020;2023-04-24T07:05:48;6.50;;;3.03;;
8219;SDS011;4151;51.110;7.020;2023-04-24T07:08:14;4.13;;;3.13;;
8219;SDS011;4151;51.110;7.020;2023-04-24T07:10:42;5.00;;;3.33;;
8219;SDS011;4151;51.110;7.020;2023-04-24T07:13:07;4.93;;;3.43;;
8219;SDS011;4151;51.110;7.020;2023-04-24T07:15:33;3.30;;;2.80;;
8219;SDS011;4151;51.110;7.020;2023-04-24T07:17:59;4.33;;;2.97;;
8219;SDS011;4151;51.110;7.020;2023-04-24T07:20:25;4.80;;;3.23;;
8219;SDS011;4151;51.110;7.020;2023-04-24T07:22:51;4.30;;;2.53;;
8219;SDS011;4151;51.110;7.020;2023-04-24T07:25:18;6.40;;;2.93;;
8219;SDS011;4151;51.110;7.020;2023-04-24T07:27:44;4.60;;;2.40;;
8219;SDS011;4151;51.110;7.020;2023-04-24T07:30:10;2.40;;;2.10;;
8219;SDS011;4151;51.110;7.020;2023-04-24T07:32:36;3.63;;;2.23;;
8219;SDS011;4151;51.110;7.020;2023-04-24T07:35:01;3.90;;;2.27;;
8219;SDS011;4151;51.110;7.020;2023-04-24T07:37:27;4.20;;;2.53;;
8219;SDS011;4151;51.110;7.020;2023-04-24T07:39:53;4.70;;;2.80;;
8219;SDS011;4151;51.110;7.020;2023-04-24T07:42:19;3.87;;;2.37;;
8219;SDS011;4151;51.110;7.020;2023-04-24T07:44:45;4.93;;;2.93;;
8219;SDS011;4151;51.110;7.020;2023-04-24T07:47:12;3.77;;;2.40;;
8219;SDS011;4151;51.110;7.020;2023-04-24T07:49:40;2.37;;;1.80;;
8219;SDS011;4151;51.110;7.020;2023-04-24T07:52:07;3.17;;;2.17;;
8219;SDS011;4151;51.110;7.020;2023-04-24T07:54:32;2.67;;;2.17;;
8219;SDS011;4151;51.110;7.020;2023-04-24T07:56:58;2.20;;;1.80;;
8219;SDS011;4151;51.110;7.020;2023-04-24T07:59:25;3.83;;;2.00;;
8219;SDS011;4151;51.110;7.020;2023-04-24T08:01:50;2.83;;;2.17;;
8219;SDS011;4151;51.110;7.020;2023-04-24T08:04:16;7.60;;;2.63;;
8219;SDS011;4151;51.110;7.020;2023-04-24T08:06:42;3.87;;;2.30;;
8219;SDS011;4151;51.110;7.020;2023-04-24T08:09:08;1.17;;;1.07;;
8219;SDS011;4151;51.110;7.020;2023-04-24T08:11:34;2.17;;;1.30;;
8219;SDS011;4151;51.110;7.020;2023-04-24T08:14:00;0.80;;;0.80;;
8219;SDS011;4151;51.110;7.020;2023-04-24T08:16:25;6.07;;;1.10;;
8219;SDS011;4151;51.110;7.020;2023-04-24T08:18:52;1.57;;;0.80;;
8219;SDS011;4151;51.110;7.020;2023-04-24T08:21:18;2.37;;;1.20;;
8219;SDS011;4151;51.110;7.020;2023-04-24T08:23:45;1.37;;;1.17;;
8219;SDS011;4151;51.110;7.020;2023-04-24T08:26:11;2.40;;;1.43;;
8219;SDS011;4151;51.110;7.020;2023-04-24T08:28:37;4.03;;;1.70;;
8219;SDS011;4151;51.110;7.020;2023-04-24T08:31:03;3.47;;;1.60;;
8219;SDS011;4151;51.110;7.020;2023-04-24T08:33:28;6.60;;;2.17;;
8219;SDS011;4151;51.110;7.020;2023-04-24T08:36:00;4.40;;;2.13;;
8219;SDS011;4151;51.110;7.020;2023-04-24T08:38:27;7.40;;;3.50;;
8219;SDS011;4151;51.110;7.020;2023-04-24T08:40:53;6.67;;;3.30;;
8219;SDS011;4151;51.110;7.020;2023-04-24T08:43:20;4.70;;;3.23;;
8219;SDS011;4151;51.110;7.020;2023-04-24T08:45:47;8.90;;;4.40;;
8219;SDS011;4151;51.110;7.020;2023-04-24T08:48:13;8.07;;;3.30;;
8219;SDS011;4151;51.110;7.020;2023-04-24T08:50:39;7.00;;;3.27;;
8219;SDS011;4151;51.110;7.020;2023-04-24T08:53:07;6.63;;;4.27;;
8219;SDS011;4151;51.110;7.020;2023-04-24T08:55:33;5.73;;;4.20;;
8219;SDS011;4151;51.110;7.020;2023-04-24T08:58:00;5.30;;;3.23;;
8219;SDS011;4151;51.110;7.020;2023-04-24T09:00:27;7.47;;;5.37;;
8219;SDS011;4151;51.110;7.020;2023-04-24T09:02:53;7.33;;;4.60;;
8219;SDS011;4151;51.110;7.020;2023-04-24T09:05:20;5.80;;;4.43;;
8219;SDS011;4151;51.110;7.020;2023-04-24T09:07:53;6.43;;;4.17;;
8219;SDS011;4151;51.110;7.020;2023-04-24T09:10:20;6.60;;;3.20;;
8219;SDS011;4151;51.110;7.020;2023-04-24T09:12:47;4.23;;;3.00;;
8219;SDS011;4151;51.110;7.020;2023-04-24T09:15:14;6.03;;;3.40;;
8219;SDS011;4151;51.110;7.020;2023-04-24T09:17:40;7.60;;;3.97;;
8219;SDS011;4151;51.110;7.020;2023-04-24T09:20:06;6.07;;;3.90;;
8219;SDS011;4151;51.110;7.020;2023-04-24T09:22:32;12.17;;;4.83;;
8219;SDS011;4151;51.110;7.020;2023-04-24T09:25:04;14.50;;;5.57;;
8219;SDS011;4151;51.110;7.020;2023-04-24T09:27:32;9.17;;;5.43;;
8219;SDS011;4151;51.110;7.020;2023-04-24T09:29:58;13.20;;;5.70;;
8219;SDS011;4151;51.110;7.020;2023-04-24T09:32:25;19.00;;;6.40;;
8219;SDS011;4151;51.110;7.020;2023-04-24T09:35:10;15.60;;;7.00;;
8219;SDS011;4151;51.110;7.020;2023-04-24T09:37:37;8.23;;;6.00;;
8219;SDS011;4151;51.110;7.020;2023-04-24T09:40:14;11.77;;;5.73;;
8219;SDS011;4151;51.110;7.020;2023-04-24T09:42:42;9.30;;;6.00;;
8219;SDS011;4151;51.110;7.020;2023-04-24T09:45:10;20.80;;;7.47;;
8219;SDS011;4151;51.110;7.020;2023-04-24T09:47:39;17.73;;;6.40;;
8219;SDS011;4151;51.110;7.020;2023-04-24T09:50:15;12.60;;;6.60;;
8219;SDS011;4151;51.110;7.020;2023-04-24T09:52:55;11.23;;;6.40;;
8219;SDS011;4151;51.110;7.020;2023-04-24T09:55:22;16.97;;;6.80;;
8219;SDS011;4151;51.110;7.020;2023-04-24T09:57:48;12.27;;;5.67;;
8219;SDS011;4151;51.110;7.020;2023-04-24T10:00:29;10.77;;;5.93;;
8219;SDS011;4151;51.110;7.020;2023-04-24T10:02:59;12.53;;;6.03;;
8219;SDS011;4151;51.110;7.020;2023-04-24T10:05:27;12.20;;;7.77;;
8219;SDS011;4151;51.110;7.020;2023-04-24T10:07:59;11.87;;;6.87;;
8219;SDS011;4151;51.110;7.020;2023-04-24T10:10:26;17.17;;;8.33;;
8219;SDS011;4151;51.110;7.020;2023-04-24T10:12:52;18.67;;;7.27;;
8219;SDS011;4151;51.110;7.020;2023-04-24T10:15:19;19.03;;;7.47;;
8219;SDS011;4151;51.110;7.020;2023-04-24T10:17:50;12.33;;;7.50;;
8219;SDS011;4151;51.110;7.020;2023-04-24T10:20:19;23.17;;;8.63;;
8219;SDS011;4151;51.110;7.020;2023-04-24T10:22:50;17.63;;;8.60;;
8219;SDS011;4151;51.110;7.020;2023-04-24T10:25:21;19.90;;;9.67;;
8219;SDS011;4151;51.110;7.020;2023-04-24T10:27:49;18.67;;;8.90;;
8219;SDS011;4151;51.110;7.020;2023-04-24T10:30:15;17.40;;;9.20;;
8219;SDS011;4151;51.110;7.020;2023-04-24T10:32:42;18.70;;;9.80;;
8219;SDS011;4151;51.110;7.020;2023-04-24T10:35:08;24.43;;;8.70;;
8219;SDS011;4151;51.110;7.020;2023-04-24T10:37:36;18.90;;;9.43;;
8219;SDS011;4151;51.110;7.020;2023-04-24T10:40:05;17.60;;;9.40;;
8219;SDS011;4151;51.110;7.020;2023-04-24T10:42:32;18.40;;;9.27;;
8219;SDS011;4151;51.110;7.020;2023-04-24T10:44:58;18.60;;;9.43;;
8219;SDS011;4151;51.110;7.020;2023-04-24T10:47:26;30.33;;;8.67;;
8219;SDS011;4151;51.110;7.020;2023-04-24T10:49:52;19.70;;;7.97;;
8219;SDS011;4151;51.110;7.020;2023-04-24T10:52:18;19.23;;;7.17;;
8219;SDS011;4151;51.110;7.020;2023-04-24T10:54:45;24.30;;;7.33;;
8219;SDS011;4151;51.110;7.020;2023-04-24T10:59:44;16.70;;;7.10;;
8219;SDS011;4151;51.110;7.020;2023-04-24T11:02:10;12.77;;;5.63;;
8219;SDS011;4151;51.110;7.020;2023-04-24T11:04:38;13.33;;;7.27;;
8219;SDS011;4151;51.110;7.020;2023-04-24T11:07:04;15.83;;;7.20;;
8219;SDS011;4151;51.110;7.020;2023-04-24T11:09:30;16.20;;;5.90;;
8219;SDS011;4151;51.110;7.020;2023-04-24T11:12:06;12.10;;;6.00;;
8219;SDS011;4151;51.110;7.020;2023-04-24T11:20:06;14.10;;;6.07;;
8219;SDS011;4151;51.110;7.020;2023-04-24T11:22:34;11.93;;;5.33;;
8219;SDS011;4151;51.110;7.020;2023-04-24T11:25:01;14.90;;;6.27;;
8219;SDS011;4151;51.110;7.020;2023-04-24T11:27:32;21.63;;;5.43;;
8219;SDS011;4151;51.110;7.020;2023-04-24T11:30:05;13.50;;;5.47;;
8219;SDS011;4151;51.110;7.020;2023-04-24T11:35:03;17.20;;;4.80;;
8219;SDS011;4151;51.110;7.020;2023-04-24T11:40:05;18.67;;;3.93;;
8219;SDS011;4151;51.110;7.020;2023-04-24T11:42:36;8.07;;;4.50;;
8219;SDS011;4151;51.110;7.020;2023-04-24T11:45:06;22.70;;;4.70;;
8219;SDS011;4151;51.110;7.020;2023-04-24T11:47:34;8.13;;;3.60;;
8219;SDS011;4151;51.110;7.020;2023-04-24T11:50:00;13.87;;;5.77;;
8219;SDS011;4151;51.110;7.020;2023-04-24T11:52:27;9.10;;;4.20;;
8219;SDS011;4151;51.110;7.020;2023-04-24T11:54:53;9.17;;;3.90;;
8219;SDS011;4151;51.110;7.020;2023-04-24T11:57:19;15.60;;;4.87;;
8219;SDS011;4151;51.110;7.020;2023-04-24T11:59:46;9.10;;;3.90;;
8219;SDS011;4151;51.110;7.020;2023-04-24T12:02:22;17.47;;;4.90;;
8219;SDS011;4151;51.110;7.020;2023-04-24T12:04:52;10.73;;;4.97;;
8219;SDS011;4151;51.110;7.020;2023-04-24T12:07:18;11.47;;;3.43;;
8219;SDS011;4151;51.110;7.020;2023-04-24T12:09:45;11.57;;;4.40;;
8219;SDS011;4151;51.110;7.020;2023-04-24T12:12:16;15.93;;;3.80;;
8219;SDS011;4151;51.110;7.020;2023-04-24T12:14:43;15.13;;;4.40;;
8219;SDS011;4151;51.110;7.020;2023-04-24T12:17:10;6.13;;;3.17;;
8219;SDS011;4151;51.110;7.020;2023-04-24T12:19:36;19.50;;;4.00;;
8219;SDS011;4151;51.110;7.020;2023-04-24T12:22:02;10.10;;;4.33;;
8219;SDS011;4151;51.110;7.020;2023-04-24T12:24:29;17.43;;;4.13;;
8219;SDS011;4151;51.110;7.020;2023-04-24T12:26:56;10.07;;;4.47;;
8219;SDS011;4151;51.110;7.020;2023-04-24T12:29:22;15.97;;;3.63;;
8219;SDS011;4151;51.110;7.020;2023-04-24T12:31:49;9.80;;;3.20;;
8219;SDS011;4151;51.110;7.020;2023-04-24T12:34:22;16.23;;;3.90;;
8219;SDS011;4151;51.110;7.020;2023-04-24T12:36:49;15.10;;;3.47;;
8219;SDS011;4151;51.110;7.020;2023-04-24T12:39:18;9.80;;;3.00;;
8219;SDS011;4151;51.110;7.020;2023-04-24T12:41:56;11.93;;;3.93;;
8219;SDS011;4151;51.110;7.020;2023-04-24T12:44:32;12.10;;;3.70;;
8219;SDS011;4151;51.110;7.020;2023-04-24T12:46:59;10.97;;;4.20;;
8219;SDS011;4151;51.110;7.020;2023-04-24T12:49:25;9.33;;;3.33;;
8219;SDS011;4151;51.110;7.020;2023-04-24T12:51:51;6.30;;;2.80;;
8219;SDS011;4151;51.110;7.020;2023-04-24T12:54:16;7.30;;;3.20;;
8219;SDS011;4151;51.110;7.020;2023-04-24T12:56:42;9.90;;;3.10;;
8219;SDS011;4151;51.110;7.020;2023-04-24T12:59:07;10.23;;;3.03;;
8219;SDS011;4151;51.110;7.020;2023-04-24T13:01:33;10.87;;;3.17;;
8219;SDS011;4151;51.110;7.020;2023-04-24T13:03:58;14.73;;;3.90;;
8219;SDS011;4151;51.110;7.020;2023-04-24T13:06:24;7.60;;;2.70;;
8219;SDS011;4151;51.110;7.020;2023-04-24T13:08:51;7.60;;;2.80;;
8219;SDS011;4151;51.110;7.020;2023-04-24T13:11:17;10.23;;;2.40;;
8219;SDS011;4151;51.110;7.020;2023-04-24T13:13:43;5.83;;;2.00;;
8219;SDS011;4151;51.110;7.020;2023-04-24T13:16:08;5.03;;;2.23;;
8219;SDS011;4151;51.110;7.020;2023-04-24T13:18:34;4.60;;;1.87;;
8219;SDS011;4151;51.110;7.020;2023-04-24T13:21:00;6.83;;;2.00;;
8219;SDS011;4151;51.110;7.020;2023-04-24T13:23:25;5.83;;;1.97;;
8219;SDS011;4151;51.110;7.020;2023-04-24T13:25:51;5.80;;;2.53;;
8219;SDS011;4151;51.110;7.020;2023-04-24T13:28:16;5.50;;;2.43;;
8219;SDS011;4151;51.110;7.020;2023-04-24T13:30:42;5.50;;;1.67;;
8219;SDS011;4151;51.110;7.020;2023-04-24T13:33:08;5.27;;;1.90;;
8219;SDS011;4151;51.110;7.020;2023-04-24T13:35:34;5.10;;;2.23;;
8219;SDS011;4151;51.110;7.020;2023-04-24T13:37:59;5.73;;;2.03;;
8219;SDS011;4151;51.110;7.020;2023-04-24T13:40:26;7.63;;;2.60;;
8219;SDS011;4151;51.110;7.020;2023-04-24T13:42:52;9.63;;;3.00;;
8219;SDS011;4151;51.110;7.020;2023-04-24T13:45:18;5.53;;;2.30;;
8219;SDS011;4151;51.110;7.020;2023-04-24T13:47:43;8.17;;;3.57;;
8219;SDS011;4151;51.110;7.020;2023-04-24T13:50:09;8.90;;;2.60;;
8219;SDS011;4151;51.110;7.020;2023-04-24T13:52:35;5.10;;;2.43;;
8219;SDS011;4151;51.110;7.020;2023-04-24T13:55:00;4.70;;;2.30;;
8219;SDS011;4151;51.110;7.020;2023-04-24T13:57:26;6.17;;;2.60;;
8219;SDS011;4151;51.110;7.020;2023-04-24T13:59:53;5.53;;;2.50;;
8219;SDS011;4151;51.110;7.020;2023-04-24T14:02:20;8.80;;;2.60;;
8219;SDS011;4151;51.110;7.020;2023-04-24T14:04:46;11.53;;;2.50;;
8219;SDS011;4151;51.110;7.020;2023-04-24T14:07:13;3.90;;;2.20;;
8219;SDS011;4151;51.110;7.020;2023-04-24T14:09:38;9.13;;;2.70;;
8219;SDS011;4151;51.110;7.020;2023-04-24T14:12:04;5.43;;;1.67;;
8219;SDS011;4151;51.110;7.020;2023-04-24T14:14:30;5.90;;;2.33;;
8219;SDS011;4151;51.110;7.020;2023-04-24T14:16:56;8.00;;;2.47;;
8219;SDS011;4151;51.110;7.020;2023-04-24T14:19:22;6.47;;;2.83;;
8219;SDS011;4151;51.110;7.020;2023-04-24T14:21:48;5.97;;;2.37;;
8219;SDS011;4151;51.110;7.020;2023-04-24T14:24:14;4.63;;;2.50;;
8219;SDS011;4151;51.110;7.020;2023-04-24T14:26:40;6.07;;;2.17;;
8219;SDS011;4151;51.110;7.020;2023-04-24T14:29:06;5.23;;;1.87;;
8219;SDS011;4151;51.110;7.020;2023-04-24T14:31:31;14.20;;;2.50;;
8219;SDS011;4151;51.110;7.020;2023-04-24T14:33:57;10.83;;;1.87;;
8219;SDS011;4151;51.110;7.020;2023-04-24T14:36:22;2.67;;;1.80;;
8219;SDS011;4151;51.110;7.020;2023-04-24T14:38:49;5.30;;;1.67;;
8219;SDS011;4151;51.110;7.020;2023-04-24T14:41:14;8.90;;;2.67;;
8219;SDS011;4151;51.110;7.020;2023-04-24T14:43:40;7.97;;;1.63;;
8219;SDS011;4151;51.110;7.020;2023-04-24T14:46:06;9.23;;;1.90;;
8219;SDS011;4151;51.110;7.020;2023-04-24T14:48:31;18.53;;;2.90;;
8219;SDS011;4151;51.110;7.020;2023-04-24T14:50:57;4.57;;;1.93;;
8219;SDS011;4151;51.110;7.020;2023-04-24T14:53:23;9.23;;;1.93;;
8219;SDS011;4151;51.110;7.020;2023-04-24T14:55:49;4.60;;;1.50;;
8219;SDS011;4151;51.110;7.020;2023-04-24T14:58:14;6.00;;;1.97;;
8219;SDS011;4151;51.110;7.020;2023-04-24T15:00:40;10.03;;;2.87;;
8219;SDS011;4151;51.110;7.020;2023-04-24T15:03:05;3.90;;;1.63;;
8219;SDS011;4151;51.110;7.020;2023-04-24T15:05:32;3.13;;;1.80;;
8219;SDS011;4151;51.110;7.020;2023-04-24T15:07:57;2.87;;;1.77;;
8219;SDS011;4151;51.110;7.020;2023-04-24T15:10:23;5.17;;;1.90;;
8219;SDS011;4151;51.110;7.020;2023-04-24T15:12:50;4.70;;;1.60;;
8219;SDS011;4151;51.110;7.020;2023-04-24T15:15:16;4.03;;;1.70;;
8219;SDS011;4151;51.110;7.020;2023-04-24T15:17:41;3.40;;;1.77;;